sensor_id;sensor_type;location;lat;lon;timestamp;P1;durP1;ratioP1;P2;durP2;ratioP2
34739;SDS011;20967;48.442;9.994;2022-09-21T00:02:14;19.20;;;6.35;;
34739;SDS011;20967;48.442;9.994;2022-09-21T00:04:44;19.17;;;6.80;;
34739;SDS011;20967;48.442;9.994;2022-09-21T00:07:20;16.20;;;6.60;;
34739;SDS011;20967;48.442;9.994;2022-09-21T00:09:45;19.52;;;6.37;;
34739;SDS011;20967;48.442;9.994;2022-09-21T00:12:14;16.10;;;6.95;;
34739;SDS011;20967;48.442;9.994;2022-09-21T00:14:45;17.42;;;6.42;;
34739;SDS011;20967;48.442;9.994;2022-09-21T00:17:14;14.40;;;6.15;;
34739;SDS011;20967;48.442;9.994;2022-09-21T00:19:41;12.55;;;5.70;;
34739;SDS011;20967;48.442;9.994;2022-09-21T00:22:10;16.60;;;6.70;;
34739;SDS011;20967;48.442;9.994;2022-09-21T00:24:38;16.35;;;6.05;;
34739;SDS011;20967;48.442;9.994;2022-09-21T00:27:07;12.15;;;5.37;;
34739;SDS011;20967;48.442;9.994;2022-09-21T00:29:39;17.75;;;6.53;;
34739;SDS011;20967;48.442;9.994;2022-09-21T00:32:06;14.68;;;5.97;;
34739;SDS011;20967;48.442;9.994;2022-09-21T00:34:34;16.17;;;5.78;;
34739;SDS011;20967;48.442;9.994;2022-09-21T00:39:46;14.03;;;5.92;;
34739;SDS011;20967;48.442;9.994;2022-09-21T00:49:57;12.28;;;5.70;;
34739;SDS011;20967;48.442;9.994;2022-09-21T00:52:24;14.03;;;4.85;;
34739;SDS011;20967;48.442;9.994;2022-09-21T00:54:53;18.35;;;5.30;;
34739;SDS011;20967;48.442;9.994;2022-09-21T00:57:24;15.15;;;6.35;;
34739;SDS011;20967;48.442;9.994;2022-09-21T00:59:53;13.55;;;5.40;;
34739;SDS011;20967;48.442;9.994;2022-09-21T01:02:21;10.15;;;4.40;;
34739;SDS011;20967;48.442;9.994;2022-09-21T01:04:51;11.50;;;4.35;;
34739;SDS011;20967;48.442;9.994;2022-09-21T01:07:21;15.53;;;5.28;;
34739;SDS011;20967;48.442;9.994;2022-09-21T01:09:51;10.25;;;4.85;;
34739;SDS011;20967;48.442;9.994;2022-09-21T01:15:18;12.15;;;4.40;;
34739;SDS011;20967;48.442;9.994;2022-09-21T01:22:47;9.08;;;4.25;;
34739;SDS011;20967;48.442;9.994;2022-09-21T01:28:11;9.75;;;4.25;;
34739;SDS011;20967;48.442;9.994;2022-09-21T01:33:13;7.53;;;4.05;;
34739;SDS011;20967;48.442;9.994;2022-09-21T01:38:12;10.65;;;5.85;;
34739;SDS011;20967;48.442;9.994;2022-09-21T01:40:42;9.55;;;4.50;;
34739;SDS011;20967;48.442;9.994;2022-09-21T01:43:33;10.85;;;5.28;;
34739;SDS011;20967;48.442;9.994;2022-09-21T01:45:57;13.50;;;4.80;;
34739;SDS011;20967;48.442;9.994;2022-09-21T01:48:28;9.80;;;4.30;;
34739;SDS011;20967;48.442;9.994;2022-09-21T01:50:58;8.93;;;4.58;;
34739;SDS011;20967;48.442;9.994;2022-09-21T01:56:18;10.10;;;3.80;;
34739;SDS011;20967;48.442;9.994;2022-09-21T02:01:18;10.93;;;4.47;;
34739;SDS011;20967;48.442;9.994;2022-09-21T02:06:23;10.43;;;4.25;;
34739;SDS011;20967;48.442;9.994;2022-09-21T02:08:52;9.80;;;4.58;;
34739;SDS011;20967;48.442;9.994;2022-09-21T02:11:20;12.05;;;4.40;;
34739;SDS011;20967;48.442;9.994;2022-09-21T02:13:49;8.15;;;4.08;;
34739;SDS011;20967;48.442;9.994;2022-09-21T02:19:10;8.15;;;3.95;;
34739;SDS011;20967;48.442;9.994;2022-09-21T02:21:39;8.98;;;3.72;;
34739;SDS011;20967;48.442;9.994;2022-09-21T02:24:28;7.70;;;3.30;;
34739;SDS011;20967;48.442;9.994;2022-09-21T02:34:57;8.60;;;3.87;;
34739;SDS011;20967;48.442;9.994;2022-09-21T02:42:26;7.97;;;3.83;;
34739;SDS011;20967;48.442;9.994;2022-09-21T02:44:58;10.30;;;4.08;;
34739;SDS011;20967;48.442;9.994;2022-09-21T02:47:25;10.82;;;4.60;;
34739;SDS011;20967;48.442;9.994;2022-09-21T02:49:53;10.75;;;4.08;;
34739;SDS011;20967;48.442;9.994;2022-09-21T02:52:21;6.95;;;3.72;;
34739;SDS011;20967;48.442;9.994;2022-09-21T02:54:50;7.87;;;3.45;;
34739;SDS011;20967;48.442;9.994;2022-09-21T02:57:19;7.72;;;4.05;;
34739;SDS011;20967;48.442;9.994;2022-09-21T02:59:48;11.85;;;4.05;;
34739;SDS011;20967;48.442;9.994;2022-09-21T03:02:18;7.50;;;4.03;;
34739;SDS011;20967;48.442;9.994;2022-09-21T03:04:45;6.40;;;3.35;;
34739;SDS011;20967;48.442;9.994;2022-09-21T03:07:14;8.23;;;3.85;;
34739;SDS011;20967;48.442;9.994;2022-09-21T03:09:42;11.88;;;5.00;;
34739;SDS011;20967;48.442;9.994;2022-09-21T03:12:10;7.92;;;4.12;;
34739;SDS011;20967;48.442;9.994;2022-09-21T03:14:39;9.38;;;3.92;;
34739;SDS011;20967;48.442;9.994;2022-09-21T03:17:07;6.87;;;3.67;;
34739;SDS011;20967;48.442;9.994;2022-09-21T03:19:37;15.23;;;3.65;;
34739;SDS011;20967;48.442;9.994;2022-09-21T03:22:05;8.23;;;3.45;;
34739;SDS011;20967;48.442;9.994;2022-09-21T03:24:32;15.15;;;4.25;;
34739;SDS011;20967;48.442;9.994;2022-09-21T03:29:40;11.28;;;3.75;;
34739;SDS011;20967;48.442;9.994;2022-09-21T03:32:08;16.45;;;4.12;;
34739;SDS011;20967;48.442;9.994;2022-09-21T03:34:36;9.15;;;4.60;;
34739;SDS011;20967;48.442;9.994;2022-09-21T03:37:04;10.50;;;4.53;;
34739;SDS011;20967;48.442;9.994;2022-09-21T03:39:34;9.78;;;4.55;;
34739;SDS011;20967;48.442;9.994;2022-09-21T03:42:04;8.08;;;4.40;;
34739;SDS011;20967;48.442;9.994;2022-09-21T03:44:32;10.95;;;5.22;;
34739;SDS011;20967;48.442;9.994;2022-09-21T03:46:59;17.40;;;6.05;;
34739;SDS011;20967;48.442;9.994;2022-09-21T03:49:27;12.85;;;5.03;;
34739;SDS011;20967;48.442;9.994;2022-09-21T03:51:54;11.85;;;5.17;;
34739;SDS011;20967;48.442;9.994;2022-09-21T03:54:26;15.00;;;5.90;;
34739;SDS011;20967;48.442;9.994;2022-09-21T03:56:55;17.57;;;5.20;;
34739;SDS011;20967;48.442;9.994;2022-09-21T03:59:24;15.55;;;5.62;;
34739;SDS011;20967;48.442;9.994;2022-09-21T04:01:55;12.28;;;5.37;;
34739;SDS011;20967;48.442;9.994;2022-09-21T04:04:23;9.13;;;5.37;;
34739;SDS011;20967;48.442;9.994;2022-09-21T04:06:51;14.58;;;4.83;;
34739;SDS011;20967;48.442;9.994;2022-09-21T04:09:19;15.53;;;5.72;;
34739;SDS011;20967;48.442;9.994;2022-09-21T04:11:48;14.85;;;4.92;;
34739;SDS011;20967;48.442;9.994;2022-09-21T04:14:15;13.15;;;5.62;;
34739;SDS011;20967;48.442;9.994;2022-09-21T04:16:43;11.00;;;5.50;;
34739;SDS011;20967;48.442;9.994;2022-09-21T04:19:12;16.80;;;5.80;;
34739;SDS011;20967;48.442;9.994;2022-09-21T04:21:39;10.50;;;5.72;;
34739;SDS011;20967;48.442;9.994;2022-09-21T04:24:07;11.50;;;5.47;;
34739;SDS011;20967;48.442;9.994;2022-09-21T04:26:34;10.95;;;5.58;;
34739;SDS011;20967;48.442;9.994;2022-09-21T04:29:02;17.95;;;6.10;;
34739;SDS011;20967;48.442;9.994;2022-09-21T04:31:30;19.40;;;7.15;;
34739;SDS011;20967;48.442;9.994;2022-09-21T04:33:59;18.45;;;6.45;;
34739;SDS011;20967;48.442;9.994;2022-09-21T04:36:27;17.70;;;6.80;;
34739;SDS011;20967;48.442;9.994;2022-09-21T04:38:55;18.57;;;5.92;;
34739;SDS011;20967;48.442;9.994;2022-09-21T04:41:23;11.38;;;5.00;;
34739;SDS011;20967;48.442;9.994;2022-09-21T04:43:52;19.67;;;5.70;;
34739;SDS011;20967;48.442;9.994;2022-09-21T04:46:20;14.05;;;4.92;;
34739;SDS011;20967;48.442;9.994;2022-09-21T04:48:50;14.00;;;5.92;;
34739;SDS011;20967;48.442;9.994;2022-09-21T04:51:17;11.45;;;5.12;;
34739;SDS011;20967;48.442;9.994;2022-09-21T04:53:45;14.28;;;5.05;;
34739;SDS011;20967;48.442;9.994;2022-09-21T04:56:13;16.07;;;4.72;;
34739;SDS011;20967;48.442;9.994;2022-09-21T04:58:40;15.65;;;5.47;;
34739;SDS011;20967;48.442;9.994;2022-09-21T05:01:08;23.30;;;5.90;;
34739;SDS011;20967;48.442;9.994;2022-09-21T05:03:37;12.90;;;6.20;;
34739;SDS011;20967;48.442;9.994;2022-09-21T05:06:04;17.80;;;5.87;;
34739;SDS011;20967;48.442;9.994;2022-09-21T05:08:32;15.03;;;5.45;;
34739;SDS011;20967;48.442;9.994;2022-09-21T05:11:18;23.15;;;6.05;;
34739;SDS011;20967;48.442;9.994;2022-09-21T05:13:46;11.28;;;5.42;;
34739;SDS011;20967;48.442;9.994;2022-09-21T05:16:14;16.80;;;6.40;;
34739;SDS011;20967;48.442;9.994;2022-09-21T05:18:41;14.40;;;6.05;;
34739;SDS011;20967;48.442;9.994;2022-09-21T05:21:14;15.10;;;6.40;;
34739;SDS011;20967;48.442;9.994;2022-09-21T05:23:38;20.45;;;7.80;;
34739;SDS011;20967;48.442;9.994;2022-09-21T05:26:06;21.90;;;7.58;;
34739;SDS011;20967;48.442;9.994;2022-09-21T05:28:34;14.95;;;7.10;;
34739;SDS011;20967;48.442;9.994;2022-09-21T05:33:47;22.90;;;6.50;;
34739;SDS011;20967;48.442;9.994;2022-09-21T05:39:00;11.85;;;5.30;;
34739;SDS011;20967;48.442;9.994;2022-09-21T05:41:28;7.85;;;4.15;;
34739;SDS011;20967;48.442;9.994;2022-09-21T05:43:56;16.57;;;4.17;;
34739;SDS011;20967;48.442;9.994;2022-09-21T05:51:33;11.30;;;3.17;;
34739;SDS011;20967;48.442;9.994;2022-09-21T05:54:06;10.40;;;3.50;;
34739;SDS011;20967;48.442;9.994;2022-09-21T06:06:31;9.65;;;3.83;;
34739;SDS011;20967;48.442;9.994;2022-09-21T06:08:58;9.48;;;4.03;;
34739;SDS011;20967;48.442;9.994;2022-09-21T06:11:26;10.78;;;4.15;;
34739;SDS011;20967;48.442;9.994;2022-09-21T06:13:53;9.13;;;4.28;;
34739;SDS011;20967;48.442;9.994;2022-09-21T06:16:21;7.45;;;3.62;;
34739;SDS011;20967;48.442;9.994;2022-09-21T06:18:48;9.58;;;4.60;;
34739;SDS011;20967;48.442;9.994;2022-09-21T06:21:16;12.93;;;5.45;;
34739;SDS011;20967;48.442;9.994;2022-09-21T06:23:43;10.63;;;4.60;;
34739;SDS011;20967;48.442;9.994;2022-09-21T06:26:11;13.38;;;4.65;;
34739;SDS011;20967;48.442;9.994;2022-09-21T06:28:38;11.43;;;4.20;;
34739;SDS011;20967;48.442;9.994;2022-09-21T06:31:06;11.43;;;4.55;;
34739;SDS011;20967;48.442;9.994;2022-09-21T06:33:33;9.70;;;4.45;;
34739;SDS011;20967;48.442;9.994;2022-09-21T06:36:02;13.78;;;4.67;;
34739;SDS011;20967;48.442;9.994;2022-09-21T06:38:30;10.93;;;4.47;;
34739;SDS011;20967;48.442;9.994;2022-09-21T06:41:01;11.45;;;4.95;;
34739;SDS011;20967;48.442;9.994;2022-09-21T06:43:30;10.70;;;4.70;;
34739;SDS011;20967;48.442;9.994;2022-09-21T06:45:58;10.38;;;4.08;;
34739;SDS011;20967;48.442;9.994;2022-09-21T06:48:26;17.05;;;5.37;;
34739;SDS011;20967;48.442;9.994;2022-09-21T06:51:00;11.38;;;4.37;;
34739;SDS011;20967;48.442;9.994;2022-09-21T06:56:02;13.25;;;4.05;;
34739;SDS011;20967;48.442;9.994;2022-09-21T07:00:57;12.20;;;4.80;;
34739;SDS011;20967;48.442;9.994;2022-09-21T07:03:24;13.40;;;4.87;;
34739;SDS011;20967;48.442;9.994;2022-09-21T07:05:52;11.88;;;4.30;;
34739;SDS011;20967;48.442;9.994;2022-09-21T07:08:19;10.08;;;3.87;;
34739;SDS011;20967;48.442;9.994;2022-09-21T07:10:48;9.98;;;4.85;;
34739;SDS011;20967;48.442;9.994;2022-09-21T07:13:16;12.23;;;4.10;;
34739;SDS011;20967;48.442;9.994;2022-09-21T07:15:43;10.70;;;3.92;;
34739;SDS011;20967;48.442;9.994;2022-09-21T07:18:11;9.65;;;3.62;;
34739;SDS011;20967;48.442;9.994;2022-09-21T07:20:39;35.65;;;8.25;;
34739;SDS011;20967;48.442;9.994;2022-09-21T07:23:10;12.95;;;4.50;;
34739;SDS011;20967;48.442;9.994;2022-09-21T07:25:43;16.30;;;4.97;;
34739;SDS011;20967;48.442;9.994;2022-09-21T07:28:11;14.58;;;5.72;;
34739;SDS011;20967;48.442;9.994;2022-09-21T07:30:39;9.75;;;4.85;;
34739;SDS011;20967;48.442;9.994;2022-09-21T07:33:07;8.30;;;4.28;;
34739;SDS011;20967;48.442;9.994;2022-09-21T07:35:34;12.98;;;4.80;;
34739;SDS011;20967;48.442;9.994;2022-09-21T07:38:05;10.72;;;4.75;;
34739;SDS011;20967;48.442;9.994;2022-09-21T07:40:33;11.33;;;5.33;;
34739;SDS011;20967;48.442;9.994;2022-09-21T07:43:01;7.78;;;4.45;;
34739;SDS011;20967;48.442;9.994;2022-09-21T07:45:29;10.53;;;4.60;;
34739;SDS011;20967;48.442;9.994;2022-09-21T07:48:03;10.60;;;5.37;;
34739;SDS011;20967;48.442;9.994;2022-09-21T07:50:31;15.72;;;5.00;;
34739;SDS011;20967;48.442;9.994;2022-09-21T07:53:02;8.85;;;4.92;;
34739;SDS011;20967;48.442;9.994;2022-09-21T07:55:29;11.03;;;4.55;;
34739;SDS011;20967;48.442;9.994;2022-09-21T07:57:57;12.55;;;4.47;;
34739;SDS011;20967;48.442;9.994;2022-09-21T08:00:42;6.60;;;4.30;;
34739;SDS011;20967;48.442;9.994;2022-09-21T08:03:10;11.18;;;4.22;;
34739;SDS011;20967;48.442;9.994;2022-09-21T08:05:38;7.70;;;3.72;;
34739;SDS011;20967;48.442;9.994;2022-09-21T08:08:07;11.85;;;3.70;;
34739;SDS011;20967;48.442;9.994;2022-09-21T08:10:36;9.13;;;3.70;;
34739;SDS011;20967;48.442;9.994;2022-09-21T08:13:04;9.80;;;3.60;;
34739;SDS011;20967;48.442;9.994;2022-09-21T08:15:32;6.12;;;3.40;;
34739;SDS011;20967;48.442;9.994;2022-09-21T08:18:00;6.40;;;3.50;;
34739;SDS011;20967;48.442;9.994;2022-09-21T08:20:28;5.67;;;3.17;;
34739;SDS011;20967;48.442;9.994;2022-09-21T08:22:55;9.13;;;3.58;;
34739;SDS011;20967;48.442;9.994;2022-09-21T08:25:23;11.83;;;3.45;;
34739;SDS011;20967;48.442;9.994;2022-09-21T08:27:50;6.28;;;2.67;;
34739;SDS011;20967;48.442;9.994;2022-09-21T08:30:18;5.35;;;2.95;;
34739;SDS011;20967;48.442;9.994;2022-09-21T08:32:45;6.05;;;3.27;;
34739;SDS011;20967;48.442;9.994;2022-09-21T08:35:13;9.93;;;4.03;;
34739;SDS011;20967;48.442;9.994;2022-09-21T08:37:41;8.05;;;3.05;;
34739;SDS011;20967;48.442;9.994;2022-09-21T08:40:08;9.73;;;3.45;;
34739;SDS011;20967;48.442;9.994;2022-09-21T08:42:44;7.42;;;3.35;;
34739;SDS011;20967;48.442;9.994;2022-09-21T08:45:17;5.50;;;3.27;;
34739;SDS011;20967;48.442;9.994;2022-09-21T08:47:46;7.58;;;2.75;;
34739;SDS011;20967;48.442;9.994;2022-09-21T08:53:01;9.00;;;3.65;;
34739;SDS011;20967;48.442;9.994;2022-09-21T08:55:28;7.33;;;3.62;;
34739;SDS011;20967;48.442;9.994;2022-09-21T08:57:57;8.35;;;3.47;;
34739;SDS011;20967;48.442;9.994;2022-09-21T09:00:25;6.42;;;3.60;;
34739;SDS011;20967;48.442;9.994;2022-09-21T09:08:18;5.85;;;3.60;;
34739;SDS011;20967;48.442;9.994;2022-09-21T09:10:51;11.00;;;4.50;;
34739;SDS011;20967;48.442;9.994;2022-09-21T09:13:21;9.13;;;4.25;;
34739;SDS011;20967;48.442;9.994;2022-09-21T09:20:57;7.65;;;4.30;;
34739;SDS011;20967;48.442;9.994;2022-09-21T09:23:30;5.92;;;3.83;;
34739;SDS011;20967;48.442;9.994;2022-09-21T09:26:05;7.47;;;4.12;;
34739;SDS011;20967;48.442;9.994;2022-09-21T09:31:05;6.42;;;3.70;;
34739;SDS011;20967;48.442;9.994;2022-09-21T09:33:42;8.28;;;4.30;;
34739;SDS011;20967;48.442;9.994;2022-09-21T09:36:05;8.43;;;4.70;;
34739;SDS011;20967;48.442;9.994;2022-09-21T09:38:35;9.15;;;5.03;;
34739;SDS011;20967;48.442;9.994;2022-09-21T09:41:12;7.05;;;4.72;;
34739;SDS011;20967;48.442;9.994;2022-09-21T09:46:09;5.35;;;3.47;;
34739;SDS011;20967;48.442;9.994;2022-09-21T09:48:38;8.85;;;3.55;;
34739;SDS011;20967;48.442;9.994;2022-09-21T09:51:04;13.18;;;4.50;;
34739;SDS011;20967;48.442;9.994;2022-09-21T09:53:31;3.62;;;2.00;;
34739;SDS011;20967;48.442;9.994;2022-09-21T09:55:59;4.25;;;2.67;;
34739;SDS011;20967;48.442;9.994;2022-09-21T10:03:32;6.08;;;3.67;;
34739;SDS011;20967;48.442;9.994;2022-09-21T10:05:59;8.30;;;4.00;;
34739;SDS011;20967;48.442;9.994;2022-09-21T10:08:37;7.92;;;4.60;;
34739;SDS011;20967;48.442;9.994;2022-09-21T10:10:59;4.20;;;2.20;;
34739;SDS011;20967;48.442;9.994;2022-09-21T10:13:33;8.55;;;3.47;;
34739;SDS011;20967;48.442;9.994;2022-09-21T10:18:45;4.55;;;2.40;;
34739;SDS011;20967;48.442;9.994;2022-09-21T10:23:36;6.60;;;4.15;;
34739;SDS011;20967;48.442;9.994;2022-09-21T10:26:07;5.08;;;2.00;;
34739;SDS011;20967;48.442;9.994;2022-09-21T10:28:33;3.58;;;2.52;;
34739;SDS011;20967;48.442;9.994;2022-09-21T10:31:09;5.70;;;2.98;;
34739;SDS011;20967;48.442;9.994;2022-09-21T10:33:33;7.62;;;2.33;;
34739;SDS011;20967;48.442;9.994;2022-09-21T10:36:03;6.97;;;2.80;;
34739;SDS011;20967;48.442;9.994;2022-09-21T10:38:30;5.55;;;2.60;;
34739;SDS011;20967;48.442;9.994;2022-09-21T10:40:58;5.33;;;2.08;;
34739;SDS011;20967;48.442;9.994;2022-09-21T10:43:32;4.37;;;2.35;;
34739;SDS011;20967;48.442;9.994;2022-09-21T10:45:56;6.37;;;3.02;;
34739;SDS011;20967;48.442;9.994;2022-09-21T10:48:26;2.87;;;1.90;;
34739;SDS011;20967;48.442;9.994;2022-09-21T10:50:54;3.37;;;2.58;;
34739;SDS011;20967;48.442;9.994;2022-09-21T10:53:32;5.17;;;2.17;;
34739;SDS011;20967;48.442;9.994;2022-09-21T10:58:29;3.42;;;2.10;;
34739;SDS011;20967;48.442;9.994;2022-09-21T11:01:08;5.28;;;2.25;;
34739;SDS011;20967;48.442;9.994;2022-09-21T11:06:14;6.50;;;2.80;;
34739;SDS011;20967;48.442;9.994;2022-09-21T11:08:44;5.70;;;2.20;;
34739;SDS011;20967;48.442;9.994;2022-09-21T11:18:59;10.05;;;2.58;;
34739;SDS011;20967;48.442;9.994;2022-09-21T11:24:06;5.00;;;2.87;;
34739;SDS011;20967;48.442;9.994;2022-09-21T11:29:08;8.83;;;2.70;;
34739;SDS011;20967;48.442;9.994;2022-09-21T11:39:10;4.97;;;2.50;;
34739;SDS011;20967;48.442;9.994;2022-09-21T11:41:57;10.98;;;3.30;;
34739;SDS011;20967;48.442;9.994;2022-09-21T11:44:38;5.62;;;2.40;;
34739;SDS011;20967;48.442;9.994;2022-09-21T11:52:05;3.95;;;2.35;;
34739;SDS011;20967;48.442;9.994;2022-09-21T12:02:21;5.20;;;2.53;;
34739;SDS011;20967;48.442;9.994;2022-09-21T12:07:19;4.95;;;2.50;;
34739;SDS011;20967;48.442;9.994;2022-09-21T12:09:51;4.40;;;2.35;;
34739;SDS011;20967;48.442;9.994;2022-09-21T12:15:08;6.10;;;1.85;;
34739;SDS011;20967;48.442;9.994;2022-09-21T12:22:46;4.15;;;2.20;;
34739;SDS011;20967;48.442;9.994;2022-09-21T12:25:24;3.73;;;1.70;;
34739;SDS011;20967;48.442;9.994;2022-09-21T12:27:49;2.85;;;1.40;;
34739;SDS011;20967;48.442;9.994;2022-09-21T12:30:19;2.83;;;1.87;;
34739;SDS011;20967;48.442;9.994;2022-09-21T12:32:49;3.70;;;1.98;;
34739;SDS011;20967;48.442;9.994;2022-09-21T12:40:46;2.52;;;1.40;;
34739;SDS011;20967;48.442;9.994;2022-09-21T12:45:43;3.22;;;1.20;;
34739;SDS011;20967;48.442;9.994;2022-09-21T12:53:21;5.12;;;1.77;;
34739;SDS011;20967;48.442;9.994;2022-09-21T12:56:04;2.12;;;1.25;;
34739;SDS011;20967;48.442;9.994;2022-09-21T13:01:24;3.12;;;1.20;;
34739;SDS011;20967;48.442;9.994;2022-09-21T13:08:39;2.37;;;0.90;;
34739;SDS011;20967;48.442;9.994;2022-09-21T13:11:03;4.00;;;1.30;;
34739;SDS011;20967;48.442;9.994;2022-09-21T13:13:34;4.15;;;1.00;;
34739;SDS011;20967;48.442;9.994;2022-09-21T13:16:02;2.05;;;0.70;;
34739;SDS011;20967;48.442;9.994;2022-09-21T13:18:34;5.42;;;1.00;;
34739;SDS011;20967;48.442;9.994;2022-09-21T13:21:24;1.77;;;0.68;;
34739;SDS011;20967;48.442;9.994;2022-09-21T13:23:34;3.65;;;0.70;;
34739;SDS011;20967;48.442;9.994;2022-09-21T13:26:02;2.80;;;0.80;;
34739;SDS011;20967;48.442;9.994;2022-09-21T13:41:24;1.30;;;0.75;;
34739;SDS011;20967;48.442;9.994;2022-09-21T13:46:44;1.75;;;0.65;;
34739;SDS011;20967;48.442;9.994;2022-09-21T13:48:51;1.70;;;0.70;;
34739;SDS011;20967;48.442;9.994;2022-09-21T13:51:19;1.77;;;0.70;;
34739;SDS011;20967;48.442;9.994;2022-09-21T13:53:48;1.62;;;0.95;;
34739;SDS011;20967;48.442;9.994;2022-09-21T13:56:20;1.07;;;0.78;;
34739;SDS011;20967;48.442;9.994;2022-09-21T13:58:49;2.42;;;0.70;;
34739;SDS011;20967;48.442;9.994;2022-09-21T14:01:18;2.25;;;0.57;;
34739;SDS011;20967;48.442;9.994;2022-09-21T14:03:54;1.10;;;0.55;;
34739;SDS011;20967;48.442;9.994;2022-09-21T14:08:51;1.85;;;0.70;;
34739;SDS011;20967;48.442;9.994;2022-09-21T14:11:27;0.57;;;0.47;;
34739;SDS011;20967;48.442;9.994;2022-09-21T14:14:02;1.75;;;0.55;;
34739;SDS011;20967;48.442;9.994;2022-09-21T14:19:00;0.50;;;0.50;;
34739;SDS011;20967;48.442;9.994;2022-09-21T14:21:29;2.42;;;0.65;;
34739;SDS011;20967;48.442;9.994;2022-09-21T14:29:15;2.15;;;0.90;;
34739;SDS011;20967;48.442;9.994;2022-09-21T14:34:11;1.92;;;0.62;;
34739;SDS011;20967;48.442;9.994;2022-09-21T14:36:41;3.87;;;1.10;;
34739;SDS011;20967;48.442;9.994;2022-09-21T14:39:19;3.10;;;0.78;;
34739;SDS011;20967;48.442;9.994;2022-09-21T14:44:16;3.27;;;0.98;;
34739;SDS011;20967;48.442;9.994;2022-09-21T14:47:01;1.12;;;0.70;;
34739;SDS011;20967;48.442;9.994;2022-09-21T15:02:25;3.30;;;1.30;;
34739;SDS011;20967;48.442;9.994;2022-09-21T15:07:26;2.58;;;0.80;;
34739;SDS011;20967;48.442;9.994;2022-09-21T15:10:20;5.77;;;1.20;;
34739;SDS011;20967;48.442;9.994;2022-09-21T15:13:21;1.12;;;0.68;;
34739;SDS011;20967;48.442;9.994;2022-09-21T15:18:19;3.30;;;1.10;;
34739;SDS011;20967;48.442;9.994;2022-09-21T15:20:59;2.22;;;0.93;;
34739;SDS011;20967;48.442;9.994;2022-09-21T15:26:03;2.37;;;1.25;;
34739;SDS011;20967;48.442;9.994;2022-09-21T15:28:34;2.17;;;1.02;;
34739;SDS011;20967;48.442;9.994;2022-09-21T15:31:02;8.98;;;1.00;;
34739;SDS011;20967;48.442;9.994;2022-09-21T15:33:35;1.22;;;0.98;;
34739;SDS011;20967;48.442;9.994;2022-09-21T15:36:01;4.80;;;1.30;;
34739;SDS011;20967;48.442;9.994;2022-09-21T15:38:29;4.72;;;1.12;;
34739;SDS011;20967;48.442;9.994;2022-09-21T15:40:57;6.05;;;1.37;;
34739;SDS011;20967;48.442;9.994;2022-09-21T15:43:25;5.95;;;1.45;;
34739;SDS011;20967;48.442;9.994;2022-09-21T15:45:56;1.70;;;1.00;;
34739;SDS011;20967;48.442;9.994;2022-09-21T15:48:25;2.08;;;1.00;;
34739;SDS011;20967;48.442;9.994;2022-09-21T15:50:56;2.98;;;1.20;;
34739;SDS011;20967;48.442;9.994;2022-09-21T15:53:25;2.17;;;1.10;;
34739;SDS011;20967;48.442;9.994;2022-09-21T15:55:53;3.17;;;1.17;;
34739;SDS011;20967;48.442;9.994;2022-09-21T15:58:26;1.50;;;1.15;;
34739;SDS011;20967;48.442;9.994;2022-09-21T16:00:51;4.08;;;1.20;;
34739;SDS011;20967;48.442;9.994;2022-09-21T16:03:23;1.75;;;1.10;;
34739;SDS011;20967;48.442;9.994;2022-09-21T16:05:52;5.15;;;1.05;;
34739;SDS011;20967;48.442;9.994;2022-09-21T16:08:30;3.67;;;1.10;;
34739;SDS011;20967;48.442;9.994;2022-09-21T16:13:25;2.65;;;0.90;;
34739;SDS011;20967;48.442;9.994;2022-09-21T16:16:13;1.47;;;0.87;;
34739;SDS011;20967;48.442;9.994;2022-09-21T16:18:50;3.10;;;1.02;;
34739;SDS011;20967;48.442;9.994;2022-09-21T16:21:14;2.90;;;1.20;;
34739;SDS011;20967;48.442;9.994;2022-09-21T16:23:42;2.67;;;1.32;;
34739;SDS011;20967;48.442;9.994;2022-09-21T16:26:16;2.33;;;1.32;;
34739;SDS011;20967;48.442;9.994;2022-09-21T16:28:41;8.48;;;2.30;;
34739;SDS011;20967;48.442;9.994;2022-09-21T16:33:59;2.73;;;1.20;;
34739;SDS011;20967;48.442;9.994;2022-09-21T16:38:59;2.37;;;1.37;;
34739;SDS011;20967;48.442;9.994;2022-09-21T16:41:32;1.60;;;1.30;;
34739;SDS011;20967;48.442;9.994;2022-09-21T16:43:58;4.90;;;1.57;;
34739;SDS011;20967;48.442;9.994;2022-09-21T16:46:31;2.30;;;1.60;;
34739;SDS011;20967;48.442;9.994;2022-09-21T16:48:58;3.80;;;1.42;;
34739;SDS011;20967;48.442;9.994;2022-09-21T16:51:26;3.92;;;1.47;;
34739;SDS011;20967;48.442;9.994;2022-09-21T16:53:54;4.15;;;1.55;;
34739;SDS011;20967;48.442;9.994;2022-09-21T16:56:26;3.37;;;1.70;;
34739;SDS011;20967;48.442;9.994;2022-09-21T16:58:56;4.33;;;1.45;;
34739;SDS011;20967;48.442;9.994;2022-09-21T17:01:25;4.92;;;1.70;;
34739;SDS011;20967;48.442;9.994;2022-09-21T17:03:52;2.10;;;1.40;;
34739;SDS011;20967;48.442;9.994;2022-09-21T17:06:20;1.67;;;1.20;;
34739;SDS011;20967;48.442;9.994;2022-09-21T17:08:48;4.60;;;1.62;;
34739;SDS011;20967;48.442;9.994;2022-09-21T17:11:17;3.30;;;1.52;;
34739;SDS011;20967;48.442;9.994;2022-09-21T17:13:48;4.10;;;1.40;;
34739;SDS011;20967;48.442;9.994;2022-09-21T17:16:18;2.12;;;1.20;;
34739;SDS011;20967;48.442;9.994;2022-09-21T17:18:46;2.58;;;1.40;;
34739;SDS011;20967;48.442;9.994;2022-09-21T17:21:15;2.83;;;1.50;;
34739;SDS011;20967;48.442;9.994;2022-09-21T17:23:45;2.55;;;1.30;;
34739;SDS011;20967;48.442;9.994;2022-09-21T17:26:15;2.62;;;1.27;;
34739;SDS011;20967;48.442;9.994;2022-09-21T17:28:46;4.25;;;1.10;;
34739;SDS011;20967;48.442;9.994;2022-09-21T17:31:14;3.02;;;1.75;;
34739;SDS011;20967;48.442;9.994;2022-09-21T17:33:46;5.55;;;1.80;;
34739;SDS011;20967;48.442;9.994;2022-09-21T17:38:47;6.70;;;1.90;;
34739;SDS011;20967;48.442;9.994;2022-09-21T17:41:23;4.37;;;1.70;;
34739;SDS011;20967;48.442;9.994;2022-09-21T17:46:22;2.27;;;1.30;;
34739;SDS011;20967;48.442;9.994;2022-09-21T17:51:51;2.33;;;1.50;;
34739;SDS011;20967;48.442;9.994;2022-09-21T17:54:40;2.70;;;1.52;;
34739;SDS011;20967;48.442;9.994;2022-09-21T17:57:14;2.15;;;1.50;;
34739;SDS011;20967;48.442;9.994;2022-09-21T17:59:41;4.85;;;1.80;;
34739;SDS011;20967;48.442;9.994;2022-09-21T18:02:24;2.50;;;1.40;;
34739;SDS011;20967;48.442;9.994;2022-09-21T18:07:16;4.15;;;1.65;;
34739;SDS011;20967;48.442;9.994;2022-09-21T18:09:44;2.37;;;1.57;;
34739;SDS011;20967;48.442;9.994;2022-09-21T18:17:31;5.42;;;2.22;;
34739;SDS011;20967;48.442;9.994;2022-09-21T18:25:20;5.72;;;2.70;;
34739;SDS011;20967;48.442;9.994;2022-09-21T18:27:48;4.70;;;2.30;;
34739;SDS011;20967;48.442;9.994;2022-09-21T18:32:58;3.72;;;2.25;;
34739;SDS011;20967;48.442;9.994;2022-09-21T18:38:09;4.10;;;2.05;;
34739;SDS011;20967;48.442;9.994;2022-09-21T18:43:54;3.62;;;2.30;;
34739;SDS011;20967;48.442;9.994;2022-09-21T18:45:45;6.67;;;2.27;;
34739;SDS011;20967;48.442;9.994;2022-09-21T18:50:56;4.15;;;2.50;;
34739;SDS011;20967;48.442;9.994;2022-09-21T18:55:53;4.78;;;2.45;;
34739;SDS011;20967;48.442;9.994;2022-09-21T18:58:21;6.10;;;2.85;;
34739;SDS011;20967;48.442;9.994;2022-09-21T19:00:56;5.00;;;2.20;;
34739;SDS011;20967;48.442;9.994;2022-09-21T19:03:34;5.25;;;2.45;;
34739;SDS011;20967;48.442;9.994;2022-09-21T19:11:15;5.85;;;2.05;;
34739;SDS011;20967;48.442;9.994;2022-09-21T19:16:32;3.60;;;2.20;;
34739;SDS011;20967;48.442;9.994;2022-09-21T19:21:51;3.80;;;2.33;;
34739;SDS011;20967;48.442;9.994;2022-09-21T19:38:44;3.55;;;2.12;;
34739;SDS011;20967;48.442;9.994;2022-09-21T19:44:44;4.05;;;2.25;;
34739;SDS011;20967;48.442;9.994;2022-09-21T19:46:32;3.30;;;2.15;;
34739;SDS011;20967;48.442;9.994;2022-09-21T19:49:04;3.10;;;2.45;;
34739;SDS011;20967;48.442;9.994;2022-09-21T19:51:43;5.92;;;2.45;;
34739;SDS011;20967;48.442;9.994;2022-09-21T19:56:57;5.60;;;2.60;;
34739;SDS011;20967;48.442;9.994;2022-09-21T19:59:42;5.42;;;2.25;;